createdAt,value
2018-12-27T00:03:12.826Z,81.71
2018-12-27T00:05:39.988Z,81.68
2018-12-27T00:08:07.596Z,81.34
2018-12-27T00:10:54.257Z,81.32
2018-12-27T00:13:21.583Z,81.47
2018-12-27T00:15:48.680Z,81.84
2018-12-27T00:18:15.923Z,81.96
2018-12-27T00:21:23.780Z,82.15
2018-12-27T00:23:51.012Z,82.10
2018-12-27T00:26:18.070Z,82.10
2018-12-27T00:28:52.078Z,82.17
2018-12-27T00:32:00.057Z,82.20
2018-12-27T00:37:48.500Z,82.22
2018-12-27T00:40:35.236Z,82.14
2018-12-27T00:43:21.944Z,81.93
2018-12-27T00:49:10.152Z,81.66
2018-12-27T00:51:56.801Z,81.51
2018-12-27T00:54:44.064Z,81.40
2018-12-27T01:00:50.723Z,81.14
2018-12-27T01:03:37.356Z,81.14
2018-12-27T01:06:23.966Z,80.98
2018-12-27T01:09:10.904Z,80.64
2018-12-27T01:11:57.599Z,80.54
2018-12-27T01:14:44.223Z,80.74
2018-12-27T01:17:30.912Z,80.91
2018-12-27T01:23:19.398Z,80.86
2018-12-27T01:31:50.582Z,81.00
2018-12-27T01:35:03.215Z,81.01
2018-12-27T01:37:55.986Z,80.82
2018-12-27T01:40:42.641Z,81.22
2018-12-27T01:43:29.316Z,80.85
2018-12-27T01:49:36.065Z,81.00
2018-12-27T01:52:22.728Z,81.47
2018-12-27T01:55:30.686Z,81.56
2018-12-27T01:58:17.336Z,81.60
2018-12-27T02:01:04.045Z,81.41
2018-12-27T02:03:50.700Z,81.11
2018-12-27T02:06:37.347Z,81.02
2018-12-27T02:12:58.065Z,80.96
2018-12-27T02:15:44.662Z,80.82
2018-12-27T02:18:31.321Z,80.57
2018-12-27T02:24:37.742Z,79.68
2018-12-27T02:27:24.396Z,80.13
2018-12-27T02:30:11.092Z,79.55
2018-12-27T02:32:57.736Z,80.04
2018-12-27T02:35:44.449Z,80.62
2018-12-27T02:38:31.071Z,81.22
2018-12-27T02:41:39.238Z,81.76
2018-12-27T02:44:25.861Z,82.03
2018-12-27T02:47:12.425Z,82.16
2018-12-27T02:49:59.070Z,82.21
2018-12-27T02:52:45.647Z,82.10
2018-12-27T02:55:32.292Z,81.93
2018-12-27T02:58:40.370Z,81.69
2018-12-27T03:01:27.009Z,81.68
2018-12-27T03:04:13.688Z,81.48
2018-12-27T03:07:00.305Z,81.33
2018-12-27T03:09:28.217Z,81.14
2018-12-27T03:12:14.832Z,81.12
2018-12-27T03:15:01.633Z,81.12
2018-12-27T03:17:48.278Z,81.11
2018-12-27T03:20:35.008Z,80.76
2018-12-27T03:23:21.628Z,79.93
2018-12-27T03:26:08.566Z,79.79
2018-12-27T03:28:55.189Z,80.13
2018-12-27T03:32:03.464Z,80.39
2018-12-27T03:34:50.125Z,80.56
2018-12-27T03:37:36.768Z,80.56
2018-12-27T03:40:23.705Z,80.59
2018-12-27T03:43:10.777Z,79.82
2018-12-27T03:45:57.451Z,79.88
2018-12-27T03:48:44.120Z,80.20
2018-12-27T03:54:43.712Z,80.92
2018-12-27T03:57:30.373Z,80.72
2018-12-27T04:00:17.225Z,80.79
2018-12-27T04:03:04.151Z,80.80
2018-12-27T04:06:12.065Z,81.11
2018-12-27T04:08:39.638Z,81.25
2018-12-27T04:11:26.304Z,81.49
2018-12-27T04:14:12.960Z,81.52
2018-12-27T04:16:40.138Z,81.69
2018-12-27T04:22:20.065Z,81.50
2018-12-27T04:28:08.048Z,80.92
2018-12-27T04:31:16.063Z,81.03
2018-12-27T04:34:09.433Z,80.80
2018-12-27T04:37:32.577Z,80.87
2018-12-27T04:39:59.798Z,80.99
2018-12-27T04:43:07.777Z,81.14
2018-12-27T04:45:34.983Z,81.38
2018-12-27T04:48:02.029Z,81.65
2018-12-27T04:50:29.448Z,81.66
2018-12-27T04:52:56.609Z,81.63
2018-12-27T04:55:43.260Z,81.69
2018-12-27T04:58:10.454Z,81.40
2018-12-27T05:03:39.094Z,81.51
2018-12-27T05:06:06.285Z,81.50
2018-12-27T05:08:33.925Z,81.33
2018-12-27T05:11:41.986Z,81.12
2018-12-27T05:14:09.141Z,81.03
2018-12-27T05:16:56.202Z,80.97
2018-12-27T05:19:23.774Z,80.93
2018-12-27T05:22:17.147Z,80.99
2018-12-27T05:27:24.251Z,80.68
2018-12-27T05:29:51.436Z,80.57
2018-12-27T05:32:59.485Z,80.71
2018-12-27T05:35:26.667Z,80.17
2018-12-27T05:37:53.834Z,79.21
2018-12-27T05:43:01.373Z,79.85
2018-12-27T05:45:28.420Z,80.35
2018-12-27T05:47:55.517Z,80.69
2018-12-27T05:50:22.691Z,80.62
2018-12-27T05:52:50.232Z,80.38
2018-12-27T05:55:36.800Z,80.33
2018-12-27T05:58:04.000Z,80.48
2018-12-27T06:04:13.346Z,80.52
2018-12-27T06:06:40.555Z,81.05
2018-12-27T06:09:07.712Z,81.26
2018-12-27T06:11:35.252Z,81.31
2018-12-27T06:14:02.778Z,81.28
2018-12-27T06:16:41.499Z,81.22
2018-12-27T06:19:08.643Z,81.22
2018-12-27T06:21:35.794Z,81.20
2018-12-27T06:24:03.446Z,81.03
2018-12-27T06:26:30.550Z,80.96
2018-12-27T06:28:57.757Z,80.75
2018-12-27T06:31:24.947Z,80.91
2018-12-27T06:33:52.123Z,80.98
2018-12-27T06:39:40.394Z,80.82
2018-12-27T06:42:07.500Z,80.84
2018-12-27T06:44:34.689Z,80.87
2018-12-27T06:47:13.909Z,80.91
2018-12-27T06:49:41.069Z,80.65
2018-12-27T06:52:08.133Z,80.30
2018-12-27T06:55:16.166Z,80.28
2018-12-27T06:57:43.229Z,80.40
2018-12-27T07:00:10.399Z,80.61
2018-12-27T07:03:18.397Z,80.68
2018-12-27T07:05:45.486Z,80.55
2018-12-27T07:08:53.391Z,80.48
2018-12-27T07:11:20.577Z,80.44
2018-12-27T07:13:47.757Z,80.51
2018-12-27T07:19:15.994Z,80.55
2018-12-27T07:21:43.151Z,80.52
2018-12-27T07:24:10.621Z,80.46
2018-12-27T07:26:37.839Z,80.36
2018-12-27T07:29:11.372Z,80.30
2018-12-27T07:31:38.607Z,80.47
2018-12-27T07:34:05.659Z,80.43
2018-12-27T07:36:33.214Z,80.44
2018-12-27T07:39:00.449Z,80.44
2018-12-27T07:41:47.139Z,80.49
2018-12-27T07:44:33.817Z,80.50
2018-12-27T07:47:00.976Z,80.54
2018-12-27T07:49:28.136Z,80.62
2018-12-27T07:51:55.351Z,80.62
2018-12-27T07:54:34.346Z,80.51
2018-12-27T07:57:01.531Z,80.31
2018-12-27T07:59:28.713Z,80.10
2018-12-27T08:02:15.366Z,80.09
2018-12-27T08:04:42.532Z,79.96
2018-12-27T08:13:09.568Z,79.41
2018-12-27T08:15:36.629Z,79.68
2018-12-27T08:18:44.553Z,79.85
2018-12-27T08:24:45.537Z,79.87
2018-12-27T08:27:32.498Z,80.05
2018-12-27T08:29:59.720Z,79.96
2018-12-27T08:32:26.874Z,79.92
2018-12-27T08:35:13.533Z,79.90
2018-12-27T08:37:40.689Z,79.85
2018-12-27T08:40:08.258Z,79.69
2018-12-27T08:45:28.377Z,79.22
2018-12-27T08:47:55.478Z,78.18
2018-12-27T08:50:42.123Z,77.28
2018-12-27T08:53:09.317Z,77.35
2018-12-27T08:55:55.965Z,77.01
2018-12-27T08:58:42.621Z,76.64
2018-12-27T09:01:09.845Z,76.65
2018-12-27T09:03:37.041Z,76.38
2018-12-27T09:06:04.283Z,76.30
2018-12-27T09:08:31.449Z,76.06
2018-12-27T09:11:05.769Z,75.78
2018-12-27T09:16:13.047Z,74.57
2018-12-27T09:18:40.255Z,73.52
2018-12-27T09:27:10.076Z,74.83
2018-12-27T09:29:56.774Z,75.19
2018-12-27T09:32:23.979Z,74.97
2018-12-27T09:34:51.554Z,74.07
2018-12-27T09:37:38.236Z,74.21
2018-12-27T09:43:26.063Z,74.42
2018-12-27T09:45:53.651Z,73.79
2018-12-27T09:48:40.330Z,73.46
2018-12-27T09:51:07.525Z,73.46
2018-12-27T09:53:34.701Z,73.50
2018-12-27T09:56:01.923Z,73.08
2018-12-27T09:58:48.570Z,73.03
2018-12-27T10:01:15.805Z,73.27
2018-12-27T10:04:02.424Z,73.07
2018-12-27T10:06:29.648Z,72.85
2018-12-27T10:11:58.357Z,72.10
2018-12-27T10:14:25.577Z,71.49
2018-12-27T10:16:52.818Z,71.02
2018-12-27T10:19:20.091Z,70.92
2018-12-27T10:21:47.319Z,70.79
2018-12-27T10:24:14.535Z,70.18
2018-12-27T10:26:41.809Z,70.15
2018-12-27T10:29:09.375Z,69.71
2018-12-27T10:31:36.888Z,69.62
2018-12-27T10:34:04.142Z,69.87
2018-12-27T10:36:31.269Z,69.81
2018-12-27T10:39:24.441Z,69.86
2018-12-27T10:41:51.529Z,69.57
2018-12-27T10:44:59.596Z,68.57
2018-12-27T10:51:00.699Z,68.23
2018-12-27T10:53:27.952Z,68.63
2018-12-27T10:56:14.576Z,68.10
2018-12-27T11:02:15.149Z,68.07
2018-12-27T11:04:42.307Z,67.31
2018-12-27T11:07:29.077Z,67.47
2018-12-27T11:09:56.242Z,67.39
2018-12-27T11:12:23.620Z,67.24
2018-12-27T11:15:10.652Z,67.43
2018-12-27T11:17:38.109Z,66.96
2018-12-27T11:20:37.170Z,67.19
2018-12-27T11:23:04.335Z,67.34
2018-12-27T11:25:31.547Z,67.67
2018-12-27T11:27:58.768Z,67.70
2018-12-27T11:33:27.278Z,67.88
2018-12-27T11:36:17.377Z,67.61
2018-12-27T11:38:49.291Z,67.53
2018-12-27T11:44:28.783Z,67.60
2018-12-27T11:47:36.796Z,67.80
2018-12-27T11:53:04.986Z,68.39
2018-12-27T11:55:32.146Z,68.80
2018-12-27T11:57:59.372Z,69.04
2018-12-27T12:00:45.931Z,69.31
2018-12-27T12:03:13.019Z,69.41
2018-12-27T12:05:40.172Z,69.46
2018-12-27T12:08:19.847Z,69.26
2018-12-27T12:14:20.418Z,69.26
2018-12-27T12:17:07.388Z,67.91
2018-12-27T12:19:35.023Z,67.86
2018-12-27T12:22:43.019Z,68.04
2018-12-27T12:25:10.269Z,67.83
2018-12-27T12:27:37.455Z,67.39
2018-12-27T12:33:06.288Z,66.59
2018-12-27T12:36:14.218Z,66.57
2018-12-27T12:41:42.988Z,66.96
2018-12-27T12:44:10.159Z,67.17
2018-12-27T12:46:37.367Z,67.34
2018-12-27T12:49:04.901Z,67.73
2018-12-27T12:51:32.062Z,67.91
2018-12-27T12:54:40.159Z,68.44
2018-12-27T13:00:41.343Z,68.57
2018-12-27T13:03:08.398Z,68.84
2018-12-27T13:06:18.161Z,69.54
2018-12-27T13:08:55.249Z,69.72
2018-12-27T13:11:22.543Z,69.88
2018-12-27T13:16:28.957Z,70.65
2018-12-27T13:18:56.147Z,70.47
2018-12-27T13:21:35.762Z,70.67
2018-12-27T13:24:02.968Z,71.06
2018-12-27T13:26:30.180Z,70.48
2018-12-27T13:28:57.296Z,70.57
2018-12-27T13:31:43.974Z,70.95
2018-12-27T13:34:11.491Z,71.31
2018-12-27T13:36:58.187Z,71.51
2018-12-27T13:39:25.332Z,70.96
2018-12-27T13:41:52.518Z,70.54
2018-12-27T13:44:19.639Z,70.76
2018-12-27T13:46:46.838Z,71.01
2018-12-27T13:49:14.310Z,71.06
2018-12-27T13:55:02.521Z,70.99
2018-12-27T14:00:42.941Z,71.69
2018-12-27T14:03:10.111Z,71.97
2018-12-27T14:05:44.243Z,72.34
2018-12-27T14:08:11.466Z,72.65
2018-12-27T14:10:58.127Z,72.58
2018-12-27T14:13:45.285Z,72.37
2018-12-27T14:16:12.503Z,72.63
2018-12-27T14:21:52.957Z,72.67
2018-12-27T14:24:20.193Z,71.87
2018-12-27T14:26:47.406Z,71.76
2018-12-27T14:29:14.669Z,72.29
2018-12-27T14:35:02.284Z,73.46
2018-12-27T14:37:29.616Z,73.87
2018-12-27T14:39:56.841Z,73.78
2018-12-27T14:42:24.475Z,73.68
2018-12-27T14:48:11.873Z,73.89
2018-12-27T14:50:38.978Z,74.17
2018-12-27T14:53:06.276Z,73.95
2018-12-27T14:55:33.551Z,74.39
2018-12-27T15:01:00.160Z,75.61
2018-12-27T15:03:27.341Z,75.70
2018-12-27T15:05:54.440Z,75.91
2018-12-27T15:08:22.038Z,75.78
2018-12-27T15:10:49.209Z,75.75
2018-12-27T15:13:16.316Z,76.02
2018-12-27T15:15:43.530Z,76.03
2018-12-27T15:18:42.551Z,76.21
2018-12-27T15:21:09.769Z,76.41
2018-12-27T15:23:36.888Z,76.81
2018-12-27T15:26:04.789Z,76.91
2018-12-27T15:28:51.794Z,77.14
2018-12-27T15:34:18.400Z,77.16
2018-12-27T15:36:45.901Z,77.29
2018-12-27T15:42:14.236Z,77.56
2018-12-27T15:47:21.535Z,77.61
2018-12-27T15:49:48.627Z,77.67
2018-12-27T15:52:22.108Z,77.78
2018-12-27T16:00:28.621Z,78.06
2018-12-27T16:02:55.737Z,78.19
2018-12-27T16:08:37.829Z,78.06
2018-12-27T16:11:05.384Z,78.19
2018-12-27T16:13:52.170Z,78.22
2018-12-27T16:19:18.432Z,78.18
2018-12-27T16:21:45.627Z,77.80
2018-12-27T16:27:13.805Z,78.11
2018-12-27T16:30:00.476Z,78.32
2018-12-27T16:32:27.697Z,78.31
2018-12-27T16:34:54.868Z,78.24
2018-12-27T16:37:22.061Z,78.23
2018-12-27T16:39:49.318Z,77.87
2018-12-27T16:42:21.794Z,77.44
2018-12-27T16:44:51.966Z,77.51
2018-12-27T16:47:19.066Z,77.34
2018-12-27T16:49:46.242Z,77.66
2018-12-27T16:52:13.465Z,78.10
2018-12-27T16:54:40.718Z,78.34
2018-12-27T16:57:07.948Z,78.37
2018-12-27T16:59:35.570Z,78.48
2018-12-27T17:02:02.794Z,78.59
2018-12-27T17:04:30.093Z,78.75
2018-12-27T17:06:57.316Z,78.66
2018-12-27T17:09:24.513Z,78.85
2018-12-27T17:11:51.730Z,78.95
2018-12-27T17:14:18.972Z,78.83
2018-12-27T17:16:46.121Z,79.04
2018-12-27T17:19:13.303Z,79.44
2018-12-27T17:21:40.490Z,79.86
2018-12-27T17:24:07.738Z,80.14
2018-12-27T17:26:34.906Z,80.29
2018-12-27T17:29:02.328Z,80.27
2018-12-27T17:31:29.493Z,80.30
2018-12-27T17:33:56.581Z,80.26
2018-12-27T17:36:23.777Z,79.89
2018-12-27T17:38:50.993Z,79.15
2018-12-27T17:41:18.782Z,79.23
2018-12-27T17:43:46.295Z,79.02
2018-12-27T17:46:13.463Z,79.27
2018-12-27T17:48:40.929Z,79.53
2018-12-27T17:51:08.147Z,79.36
2018-12-27T17:53:35.655Z,79.04
2018-12-27T17:56:02.800Z,79.02
2018-12-27T17:58:30.028Z,79.14
2018-12-27T18:00:57.198Z,79.21
2018-12-27T18:03:24.394Z,79.38
2018-12-27T18:05:51.600Z,79.58
2018-12-27T18:08:18.851Z,79.51
2018-12-27T18:10:45.922Z,79.47
2018-12-27T18:13:13.184Z,79.70
2018-12-27T18:15:40.294Z,79.83
2018-12-27T18:18:07.361Z,79.80
2018-12-27T18:20:34.794Z,79.56
2018-12-27T18:23:02.016Z,79.69
2018-12-27T18:25:29.219Z,79.79
2018-12-27T18:27:56.488Z,79.84
2018-12-27T18:30:23.664Z,79.75
2018-12-27T18:32:51.374Z,79.24
2018-12-27T18:35:18.606Z,79.12
2018-12-27T18:37:46.126Z,78.56
2018-12-27T18:40:13.292Z,78.54
2018-12-27T18:42:40.563Z,78.74
2018-12-27T18:45:08.012Z,79.12
2018-12-27T18:47:35.232Z,78.60
2018-12-27T18:50:02.548Z,78.55
2018-12-27T18:52:29.603Z,78.59
2018-12-27T18:54:57.089Z,78.84
2018-12-27T18:57:24.613Z,78.56
2018-12-27T18:59:51.812Z,78.19
2018-12-27T19:02:19.381Z,78.23
2018-12-27T19:04:46.615Z,78.74
2018-12-27T19:07:13.814Z,79.34
2018-12-27T19:09:41.009Z,79.39
2018-12-27T19:12:44.445Z,79.44
2018-12-27T19:15:14.976Z,79.35
2018-12-27T19:17:55.967Z,79.49
2018-12-27T19:20:23.169Z,79.34
2018-12-27T19:23:02.186Z,78.96
2018-12-27T19:25:29.459Z,79.20
2018-12-27T19:27:56.686Z,79.19
2018-12-27T19:30:23.934Z,79.14
2018-12-27T19:32:51.074Z,79.21
2018-12-27T19:35:18.280Z,79.38
2018-12-27T19:37:51.851Z,79.37
2018-12-27T19:40:14.631Z,79.49
2018-12-27T19:42:41.922Z,79.69
2018-12-27T19:45:09.167Z,80.30
2018-12-27T19:47:36.352Z,80.76
2018-12-27T19:50:03.674Z,80.63
2018-12-27T19:52:31.260Z,80.69
2018-12-27T19:54:58.353Z,80.57
2018-12-27T19:57:25.786Z,80.21
2018-12-27T19:59:53.210Z,80.18
2018-12-27T20:02:20.382Z,80.48
2018-12-27T20:04:47.928Z,80.21
2018-12-27T20:07:15.241Z,80.21
2018-12-27T20:09:42.516Z,79.96
2018-12-27T20:12:10.160Z,80.10
2018-12-27T20:14:37.942Z,79.85
2018-12-27T20:17:06.828Z,80.29
2018-12-27T20:19:34.122Z,80.66
2018-12-27T20:22:01.796Z,80.42
2018-12-27T20:24:29.483Z,80.09
2018-12-27T20:26:57.091Z,79.91
2018-12-27T20:29:24.460Z,79.98
2018-12-27T20:31:53.560Z,80.42
2018-12-27T20:34:21.198Z,80.44
2018-12-27T20:36:48.628Z,80.79
2018-12-27T20:39:16.246Z,81.20
2018-12-27T20:41:43.486Z,81.46
2018-12-27T20:44:11.154Z,81.59
2018-12-27T20:46:38.499Z,81.71
2018-12-27T20:49:05.823Z,81.77
2018-12-27T20:51:33.448Z,81.90
2018-12-27T20:54:00.748Z,81.72
2018-12-27T20:56:27.970Z,81.33
2018-12-27T20:58:55.621Z,80.40
2018-12-27T21:01:23.190Z,80.38
2018-12-27T21:03:50.490Z,80.41
2018-12-27T21:06:17.756Z,80.31
2018-12-27T21:08:45.336Z,79.84
2018-12-27T21:11:12.824Z,80.14
2018-12-27T21:13:40.055Z,80.37
2018-12-27T21:16:07.244Z,80.64
2018-12-27T21:18:34.405Z,80.87
2018-12-27T21:21:01.843Z,81.00
2018-12-27T21:23:29.271Z,81.03
2018-12-27T21:25:56.528Z,80.74
2018-12-27T21:28:24.067Z,80.32
2018-12-27T21:30:51.537Z,79.48
2018-12-27T21:33:18.629Z,79.32
2018-12-27T21:35:45.715Z,79.78
2018-12-27T21:38:12.920Z,80.06
2018-12-27T21:40:40.101Z,79.92
2018-12-27T21:43:07.397Z,79.85
2018-12-27T21:45:34.699Z,80.37
2018-12-27T21:48:01.858Z,80.50
2018-12-27T21:50:29.281Z,80.50
2018-12-27T21:52:56.559Z,80.83
2018-12-27T21:55:23.723Z,81.14
2018-12-27T21:57:50.961Z,81.54
2018-12-27T22:00:18.037Z,81.50
2018-12-27T22:02:45.242Z,81.53
2018-12-27T22:05:12.628Z,81.67
2018-12-27T22:07:39.841Z,81.73
2018-12-27T22:10:07.416Z,81.15
2018-12-27T22:12:34.670Z,80.25
2018-12-27T22:15:02.071Z,80.32
2018-12-27T22:17:29.385Z,80.18
2018-12-27T22:19:56.601Z,79.97
2018-12-27T22:22:23.801Z,80.27
2018-12-27T22:24:51.033Z,80.39
2018-12-27T22:27:18.570Z,80.49
2018-12-27T22:29:46.020Z,80.57
2018-12-27T22:32:13.217Z,80.69
2018-12-27T22:34:40.407Z,80.84
2018-12-27T22:37:07.620Z,81.17
2018-12-27T22:39:34.795Z,81.42
2018-12-27T22:42:02.329Z,81.70
2018-12-27T22:44:29.554Z,81.79
2018-12-27T22:46:56.769Z,81.91
2018-12-27T22:49:24.005Z,81.76
2018-12-27T22:51:51.186Z,81.24
2018-12-27T22:54:18.411Z,80.71
2018-12-27T22:56:45.642Z,80.55
2018-12-27T22:59:12.838Z,80.16
2018-12-27T23:01:40.025Z,79.99
2018-12-27T23:04:07.219Z,80.25
2018-12-27T23:06:34.400Z,80.67
2018-12-27T23:09:02.081Z,80.98
2018-12-27T23:11:29.844Z,81.42
2018-12-27T23:13:57.024Z,81.25
2018-12-27T23:16:24.199Z,81.03
2018-12-27T23:18:51.703Z,81.15
2018-12-27T23:21:18.866Z,81.21
2018-12-27T23:23:45.919Z,81.70
2018-12-27T23:26:13.133Z,81.46
2018-12-27T23:28:40.194Z,81.42
2018-12-27T23:31:07.356Z,81.77
2018-12-27T23:33:34.544Z,81.55
2018-12-27T23:36:01.625Z,81.41
2018-12-27T23:38:28.779Z,81.72
2018-12-27T23:40:56.000Z,82.06
2018-12-27T23:43:23.491Z,82.18
2018-12-27T23:45:50.657Z,82.27
2018-12-27T23:48:17.892Z,82.20
2018-12-27T23:50:44.977Z,82.00
2018-12-27T23:53:12.197Z,82.01
2018-12-27T23:55:39.396Z,81.75
2018-12-27T23:58:06.914Z,81.43
